• Join FlightAware (Why Join?)
  • Login
  • US Flag 
Rudolph Flight #1: Arrived! 
08:30PM EST


 

Airport Tracker/Info


-or-


 

Live Flight TrackerFlight Track Log ✈ SWA419 ✈ 26-Apr-2013 ✈ KPWM - KBWI

Flight Track Log - Related Links

Times and Time Zones

All times are in EDT time to prevent confusion due to time zone crossing. See the SWA419 flight status page for this flight to view local times or setup timezone preferences in your user account.

Time Position Orientation Groundspeed Altitude Reporting Facility
EDT Latitude Longitude Course Direction KTS MPH feet Rate Location/Type
12:35PM 43.6114 -70.2694 180° South 186 214 2,200  Level Boston Center
12:36PM 43.5658 -70.2794 189° South 204 235 4,300 2,700 Climbing Boston Center
12:37PM 43.5047 -70.3506 220° Southwest 234 269 7,700 3,300 Climbing Boston Center
12:38PM 43.4475 -70.4125 218° Southwest 267 307 11,000 2,700 Climbing Boston Center
12:39PM 43.3881 -70.4803 220° Southwest 291 335 13,200 3,000 Climbing Boston Center
12:40PM 43.3061 -70.5683 218° Southwest 329 379 17,000 2,880 Climbing Boston Center
12:41PM 43.1471 -70.7167 180° South  Level FlightAware Approximate
12:41PM 43.2367 -70.6447 219° Southwest 352 405 19,000  Level Boston Center
12:42PM 43.1483 -70.7297 215° Southwest 352 405 21,800 2,640 Climbing Boston Center
12:43PM 43.0514 -70.8006 208° Southwest 379 436 24,300 2,280 Climbing Boston Center
12:44PM 42.9503 -70.8742 208° Southwest 403 464 26,400 1,860 Climbing Boston Center
12:45PM 42.8450 -70.9478 207° Southwest 416 479 28,100 2,040 Climbing Boston Center
12:46PM 42.7311 -71.0069 201° Southwest 427 491 30,500 2,160 Climbing Boston Center
12:47PM 42.6172 -71.0633 200° South 439 505 32,500 1,740 Climbing Boston Center
12:48PM 42.5053 -71.1164 199° South 439 505 34,000 720 Climbing Boston Center
12:49PM 42.4253 -71.2250 225° Southwest 406 467 34,000  Level Boston Center
12:50PM 42.3703 -71.3581 241° Southwest 401 461 34,000  Level Boston Center
12:51PM 42.3089 -71.4856 237° Southwest 406 467 34,000  Level Boston Center
12:52PM 42.2514 -71.6014 236° Southwest 413 475 34,000  Level Boston Center
12:53PM 42.1878 -71.7311 237° Southwest 418 481 34,000  Level Boston Center
12:54PM 42.1258 -71.8578 237° Southwest 418 481 34,000  Level Boston Center
12:55PM 42.0639 -71.9900 238° Southwest 418 481 34,000  Level Boston Center
12:56PM 42.0039 -72.1189 238° Southwest 418 481 34,000  Level Boston Center
12:57PM 41.9417 -72.2447 236° Southwest 418 481 34,000  Level Boston Center
12:58PM 41.8814 -72.3703 237° Southwest 418 481 34,000  Level Boston Center
12:59PM 41.8189 -72.4958 236° Southwest 418 481 34,000  Level Boston Center
01:00PM 41.7564 -72.6267 237° Southwest 418 481 34,000  Level Boston Center
01:01PM 41.6956 -72.7514 237° Southwest 418 481 34,000  Level Boston Center
01:02PM 41.6347 -72.8761 237° Southwest 418 481 34,000  Level Boston Center
01:03PM 41.5717 -73.0033 237° Southwest 418 481 34,000  Level Boston Center
01:04PM 41.5064 -73.1358 237° Southwest 411 473 34,000  Level Boston Center
01:05PM 41.4428 -73.2597 236° Southwest 411 473 34,000  Level Boston Center
01:08PM 41.2953 -73.5575 237° Southwest 406 467 34,000  Level New York Center
01:09PM 41.2281 -73.6733 232° Southwest 406 467 34,000  Level New York Center
01:10PM 41.1606 -73.7917 233° Southwest 406 467 34,000  Level New York Center
01:11PM 41.0908 -73.9042 231° Southwest 406 467 34,000  Level New York Center
01:12PM 41.0233 -74.0192 232° Southwest 406 467 34,000  Level New York Center
01:13PM 40.9511 -74.1394 232° Southwest 406 467 34,000 -1,320 Level New York Center
01:14PM 40.8856 -74.2431 230° Southwest 406 467 31,400 -2,880 Descending New York Center
01:15PM 40.8153 -74.3631 232° Southwest 416 479 28,300 -1,740 Descending New York Center
01:16PM 40.7408 -74.4822 231° Southwest 422 486 28,000 -180 Descending New York Center
01:17PM 40.6683 -74.6014 231° Southwest 428 493 28,000  Level New York Center
01:18PM 40.5933 -74.7231 231° Southwest 433 498 28,000 -60 Level New York Center
01:19PM 40.5167 -74.8358 228° Southwest 433 498 27,900 -360 Descending New York Center
01:20PM 40.4419 -74.9433 228° Southwest 416 479 27,300 -1,380 Descending New York Center
01:21PM 40.3694 -75.0453 227° Southwest 403 464 25,200 -2,220 Descending New York Center
01:22PM 40.2992 -75.1442 227° Southwest 388 447 23,000 -2,160 Descending New York Center
01:23PM 40.2289 -75.2431 227° Southwest 381 438 20,900 -2,100 Descending New York Center
01:24PM 40.1650 -75.3314 227° Southwest 369 425 18,800 -1,440 Descending New York Center
01:25PM 40.0989 -75.4247 227° Southwest 355 409 18,000 -420 Descending New York Center
01:26PM 40.0347 -75.5153 227° Southwest 350 403 18,000  Level New York Center
01:27PM 39.9708 -75.6031 226° Southwest 350 403 18,000 -540 Level New York Center
01:28PM 39.9064 -75.6961 228° Southwest 350 403 17,000 -1,020 Descending New York Center
01:29PM 39.8564 -75.7928 236° Southwest 339 390 16,000 -1,080 Descending New York Center
01:30PM 39.8019 -75.8969 236° Southwest 324 373 14,900 -1,140 Descending New York Center
01:32PM 39.6667 -76.1333 233° Southwest 277 319 12,000 -1,080 Descending Potomac TRACON
01:33PM 39.6333 -76.2167 243° Southwest 276 318 11,100 -1,200 Descending Potomac TRACON
01:34PM 39.5833 -76.3000 232° Southwest 277 319 9,700 -1,380 Descending Potomac TRACON
01:35PM 39.5333 -76.3500 218° Southwest 282 325 8,500 -1,380 Descending Potomac TRACON
01:36PM 39.4667 -76.4167 218° Southwest 272 313 7,000 -1,260 Descending Potomac TRACON
01:37PM 39.4167 -76.4833 226° Southwest 268 308 6,000 -1,200 Descending Potomac TRACON
01:38PM 39.3500 -76.4833 180° South 274 315 4,700 -960 Descending Potomac TRACON
01:39PM 39.3000 -76.4167 134° Southeast 261 300 4,000 -720 Descending Potomac TRACON
01:40PM 39.2333 -76.4167 180° South 257 296 3,300 -600 Descending Potomac TRACON
01:41PM 39.1667 -76.4167 180° South 250 288 2,900 -660 Descending Potomac TRACON
01:42PM 39.1000 -76.4667 210° Southwest 245 282 2,000 -540 Descending Potomac TRACON
01:43PM 39.1000 -76.5333 270° West 221 254 1,900 -180 Descending Potomac TRACON
01:44PM 39.1000 -76.6000 270° West 179 206 1,700 -540 Descending Potomac TRACON
01:45PM 39.1333 -76.6333 322° Northwest 156 180 900 -840 Descending Potomac TRACON
01:47PM 39.1667 -76.6667 270° West  Level FlightAware Approximate
01:54PM 39.1754 -76.6683 270° West  Level Estimated
01:55PM 39.1754 -76.6683 270° West  Level Estimated
01:56PM 39.1754 -76.6683 270° West  Level Estimated
01:57PM 39.1754 -76.6683 270° West  Level Estimated